Time;durP1;ratioP1;P1;durP2;ratioP2;P2;SDS_P1;SDS_P2;PMS_P1;PMS_P2;Temp;Humidity;BMP_temperature;BMP_pressure;BME280_temperature;BME280_humidity;BME280_pressure;Samples;Min_cycle;Max_cycle;Signal;HPM_P1;HPM_P2
2022/10/22 00:00:53;;;;;;;;;3.25;2.00;;;;;17.75;71.12;100562.69;4830747;29;45583;-78
2022/10/22 00:03:18;;;;;;;;;2.00;2.00;;;;;17.62;71.21;100553.66;4854395;29;47561;-78
2022/10/22 00:05:44;;;;;;;;;3.50;2.00;;;;;17.76;71.26;100579.78;4835289;29;45310;-78
2022/10/22 00:08:09;;;;;;;;;4.00;2.75;;;;;17.73;70.84;100575.44;4830778;29;45412;-78
2022/10/22 00:10:37;;;;;;;;;2.25;2.00;;;;;17.73;71.06;100574.56;4836837;29;46575;-78
2022/10/22 00:13:03;;;;;;;;;2.00;2.00;;;;;17.73;71.21;100588.06;4837848;29;45951;-78
2022/10/22 00:15:28;;;;;;;;;2.00;2.00;;;;;17.67;71.37;100565.03;4835598;29;45346;-78
2022/10/22 00:17:53;;;;;;;;;2.25;2.00;;;;;17.64;71.20;100573.34;4830779;29;45253;-78
2022/10/22 00:20:19;;;;;;;;;2.75;1.00;;;;;17.66;71.00;100579.50;4829304;29;49134;-78
2022/10/22 00:22:44;;;;;;;;;1.00;1.00;;;;;17.68;71.50;100595.59;4827710;29;48102;-78
2022/10/22 00:25:09;;;;;;;;;3.25;1.75;;;;;17.65;71.74;100591.25;4834755;29;45879;-78
2022/10/22 00:27:34;;;;;;;;;2.25;2.25;;;;;17.60;71.58;100582.59;4830567;29;45265;-78
2022/10/22 00:30:00;;;;;;;;;3.00;2.00;;;;;17.63;71.70;100597.75;4829662;29;45205;-78
2022/10/22 00:32:25;;;;;;;;;3.25;2.00;;;;;17.65;71.36;100606.59;4830289;29;46032;-78
2022/10/22 00:34:50;;;;;;;;;2.00;2.00;;;;;17.62;71.38;100606.78;4832685;29;45282;-78
2022/10/22 00:37:16;;;;;;;;;1.75;1.75;;;;;17.59;71.49;100605.13;4840283;29;45481;-78
2022/10/22 00:39:41;;;;;;;;;2.25;1.00;;;;;17.58;71.57;100617.78;4843804;29;45538;-78
2022/10/22 00:42:16;;;;;;;;;2.25;2.25;;;;;17.55;71.34;100609.00;4830249;29;46235;-78
2022/10/22 00:45:14;;;;;;;;;4.50;2.75;;;;;17.53;71.12;100611.81;4831129;29;45459;-78
2022/10/22 00:47:39;;;;;;;;;2.25;2.00;;;;;17.55;71.60;100623.38;4826507;29;45343;-78
2022/10/22 00:50:10;;;;;;;;;2.00;1.00;;;;;17.54;71.36;100627.03;4830202;29;45291;-78
2022/10/22 00:52:36;;;;;;;;;2.00;2.00;;;;;17.45;71.49;100616.81;4841318;29;46011;-78
2022/10/22 00:55:01;;;;;;;;;2.00;2.00;;;;;17.55;71.33;100636.84;4829909;29;45325;-77
2022/10/22 00:57:27;;;;;;;;;2.25;2.25;;;;;17.53;71.47;100635.25;4837515;29;45332;-78
2022/10/22 00:59:54;;;;;;;;;2.25;2.25;;;;;17.50;71.56;100644.38;4829797;29;45507;-77
2022/10/22 01:02:20;;;;;;;;;4.00;2.00;;;;;17.42;71.54;100638.59;4828443;29;47327;-78
2022/10/22 01:04:45;;;;;;;;;3.25;1.00;;;;;17.50;71.46;100648.91;4829195;29;45301;-78
2022/10/22 01:07:16;;;;;;;;;2.00;1.00;;;;;17.40;71.47;100637.81;4829053;29;45327;-78
2022/10/22 01:09:54;;;;;;;;;2.00;2.00;;;;;17.50;71.84;100662.41;4829056;29;45612;-78
2022/10/22 01:12:41;;;;;;;;;3.75;3.00;;;;;17.49;71.74;100663.38;4831139;29;46363;-78
2022/10/22 01:15:35;;;;;;;;;2.50;2.50;;;;;17.44;71.54;100663.69;4829722;29;45519;-78
2022/10/22 01:18:15;;;;;;;;;4.00;2.00;;;;;17.40;71.99;100662.13;4826857;29;45383;-78
2022/10/22 01:20:59;;;;;;;;;3.75;2.75;;;;;17.41;71.85;100667.41;4829839;29;45273;-77
2022/10/22 01:23:45;;;;;;;;;2.00;2.00;;;;;17.40;71.58;100665.66;4827402;29;46546;-78
2022/10/22 01:26:20;;;;;;;;;3.00;2.00;;;;;17.40;71.27;100673.75;4828946;29;45616;-78
2022/10/22 01:29:17;;;;;;;;;2.25;2.25;;;;;17.40;71.71;100675.59;4828768;29;45527;-77
2022/10/22 01:31:55;;;;;;;;;1.75;1.75;;;;;17.38;71.49;100677.53;4829593;29;45463;-78
2022/10/22 01:34:23;;;;;;;;;1.75;1.75;;;;;17.35;71.88;100681.28;4835467;29;45316;-78
2022/10/22 01:36:50;;;;;;;;;1.00;1.00;;;;;17.38;71.88;100682.94;4832844;29;45531;-78
2022/10/22 01:39:17;;;;;;;;;3.00;2.00;;;;;17.31;71.58;100687.84;4842421;29;45428;-78
2022/10/22 01:41:46;;;;;;;;;4.00;2.75;;;;;17.31;71.90;100685.16;4846572;29;45444;-78
2022/10/22 01:44:28;;;;;;;;;4.00;2.00;;;;;17.34;71.64;100693.06;4840277;29;45411;-78
2022/10/22 01:47:05;;;;;;;;;1.75;1.75;;;;;17.35;71.68;100694.75;4833338;29;45492;-78
2022/10/22 01:50:02;;;;;;;;;2.25;1.50;;;;;17.34;71.80;100694.84;4841286;29;45485;-77
2022/10/22 01:53:01;;;;;;;;;5.00;2.00;;;;;17.29;71.80;100692.47;4832418;29;45576;-78
2022/10/22 01:55:40;;;;;;;;;4.00;3.00;;;;;17.26;71.95;100695.34;4831854;29;45597;-78
2022/10/22 01:58:17;;;;;;;;;3.50;2.00;;;;;17.28;72.10;100697.97;4846846;29;45400;-78
2022/10/22 02:00:53;;;;;;;;;3.00;3.00;;;;;17.13;72.01;100667.38;4817023;29;45403;-78
2022/10/22 02:03:28;;;;;;;;;2.00;1.75;;;;;17.23;71.79;100691.00;4827996;29;45366;-78
2022/10/22 02:06:01;;;;;;;;;1.25;1.00;;;;;17.19;72.00;100680.47;4826974;29;48430;-78
2022/10/22 02:08:31;;;;;;;;;2.00;2.00;;;;;17.26;71.84;100681.88;4827654;29;45333;-78
2022/10/22 02:10:58;;;;;;;;;2.00;2.00;;;;;17.30;71.86;100696.03;4828305;29;45353;-78
2022/10/22 02:13:29;;;;;;;;;2.00;2.00;;;;;17.31;71.70;100701.34;4836459;29;45324;-78
2022/10/22 02:15:56;;;;;;;;;3.25;2.00;;;;;17.22;72.33;100688.38;4831875;29;46302;-78
2022/10/22 02:18:26;;;;;;;;;1.00;1.00;;;;;17.33;72.03;100703.94;4828119;29;45726;-78
2022/10/22 02:20:53;;;;;;;;;1.50;1.50;;;;;17.31;71.83;100698.63;4817659;29;45325;-78
2022/10/22 02:23:20;;;;;;;;;2.00;1.00;;;;;17.32;72.09;100705.75;4827223;29;45425;-78
2022/10/22 02:25:50;;;;;;;;;2.75;2.00;;;;;17.32;72.13;100699.50;4827923;29;46193;-78
2022/10/22 02:28:45;;;;;;;;;2.25;2.25;;;;;17.31;72.06;100705.88;4817219;29;45497;-78
2022/10/22 02:31:22;;;;;;;;;3.50;2.00;;;;;17.23;72.10;100691.00;4828896;29;45404;-78
2022/10/22 02:33:53;;;;;;;;;2.75;1.00;;;;;17.23;71.57;100693.69;4854900;29;45561;-78
2022/10/22 02:36:19;;;;;;;;;4.00;2.00;;;;;17.26;71.88;100694.47;4842201;29;46492;-78
2022/10/22 02:38:48;;;;;;;;;2.00;1.25;;;;;17.25;71.84;100696.31;4836529;29;45235;-78
2022/10/22 02:41:15;;;;;;;;;1.00;1.00;;;;;17.29;71.84;100715.84;4830651;29;45313;-78
2022/10/22 02:43:42;;;;;;;;;1.00;1.00;;;;;17.20;72.33;100699.28;4838429;29;45263;-78
2022/10/22 02:46:09;;;;;;;;;1.25;1.25;;;;;17.24;71.82;100708.06;4828098;29;45232;-78
2022/10/22 02:48:35;;;;;;;;;1.75;1.00;;;;;17.27;72.35;100721.34;4826796;29;45615;-78
2022/10/22 02:51:00;;;;;;;;;3.00;1.00;;;;;17.26;72.50;100727.72;4827334;29;45277;-78
2022/10/22 02:53:25;;;;;;;;;2.00;1.00;;;;;17.23;71.73;100723.38;4829097;29;45388;-78
2022/10/22 02:55:50;;;;;;;;;1.75;1.00;;;;;17.27;71.69;100720.47;4831517;29;45966;-78
2022/10/22 02:58:16;;;;;;;;;2.00;1.00;;;;;17.26;72.17;100737.63;4834728;29;45405;-78
2022/10/22 03:00:41;;;;;;;;;2.50;1.00;;;;;17.18;71.87;100722.78;4843030;29;45315;-77
2022/10/22 03:03:06;;;;;;;;;3.00;1.00;;;;;17.27;72.25;100740.22;4830671;29;45699;-78
2022/10/22 03:05:32;;;;;;;;;2.00;2.00;;;;;17.25;71.77;100736.75;4830849;29;45258;-78
2022/10/22 03:07:57;;;;;;;;;2.25;1.00;;;;;17.25;71.73;100738.59;4835582;29;46010;-77
2022/10/22 03:10:22;;;;;;;;;1.00;1.00;;;;;17.27;72.13;100742.94;4841978;29;45318;-78
2022/10/22 03:12:48;;;;;;;;;3.00;0.00;;;;;17.18;71.83;100732.72;4845119;29;45432;-78
2022/10/22 03:15:13;;;;;;;;;2.00;1.00;;;;;17.27;71.69;100748.31;4823603;29;46232;-78
2022/10/22 03:17:38;;;;;;;;;2.00;2.00;;;;;17.23;71.87;100750.34;4829596;29;45338;-78
2022/10/22 03:20:04;;;;;;;;;1.00;1.00;;;;;17.25;72.02;100750.25;4830527;29;45264;-78
2022/10/22 03:22:32;;;;;;;;;1.00;1.00;;;;;17.25;71.88;100752.09;4830927;29;45220;-78
2022/10/22 03:25:06;;;;;;;;;2.00;2.00;;;;;17.25;72.18;100758.34;4831191;29;45349;-78
2022/10/22 03:27:34;;;;;;;;;3.00;2.00;;;;;17.22;71.81;100754.03;4830322;29;46036;-77
2022/10/22 03:30:01;;;;;;;;;2.25;1.75;;;;;17.26;72.38;100773.56;4831541;29;45279;-77
2022/10/22 03:32:26;;;;;;;;;2.00;2.00;;;;;17.21;72.11;100751.41;4831127;29;45287;-77
2022/10/22 03:34:52;;;;;;;;;3.00;2.00;;;;;17.26;72.27;100770.00;4831205;29;45387;-78
2022/10/22 03:37:17;;;;;;;;;2.50;2.50;;;;;17.22;71.84;100762.09;4833562;29;45398;-77
2022/10/22 03:39:43;;;;;;;;;2.50;2.50;;;;;17.22;72.24;100772.00;4838462;29;45344;-78
2022/10/22 03:42:09;;;;;;;;;1.75;1.75;;;;;17.19;72.18;100765.00;4833123;29;45524;-77
2022/10/22 03:44:38;;;;;;;;;1.00;1.00;;;;;17.22;72.20;100772.00;4830778;29;45347;-78
2022/10/22 03:47:04;;;;;;;;;2.00;1.00;;;;;17.23;72.23;100779.16;4829370;29;45246;-77
2022/10/22 03:49:29;;;;;;;;;2.00;2.00;;;;;17.22;71.96;100781.00;4831272;29;45362;-78
2022/10/22 03:51:54;;;;;;;;;1.00;1.00;;;;;17.16;72.11;100767.00;4830751;29;45340;-77
2022/10/22 03:54:20;;;;;;;;;2.00;2.00;;;;;17.18;72.13;100778.56;4830785;29;45304;-77
2022/10/22 03:56:45;;;;;;;;;1.50;1.50;;;;;17.14;72.08;100777.00;4834616;29;45396;-78
2022/10/22 03:59:12;;;;;;;;;1.00;1.00;;;;;17.12;71.97;100769.00;4840097;29;45334;-78
2022/10/22 04:01:37;;;;;;;;;2.75;1.75;;;;;17.14;72.25;100777.88;4830931;29;45304;-77
2022/10/22 04:04:03;;;;;;;;;0.25;0.25;;;;;17.13;72.45;100776.13;4830650;29;45268;-77
2022/10/22 04:06:29;;;;;;;;;2.50;0.75;;;;;17.11;72.10;100783.44;4828869;29;45323;-78
2022/10/22 04:08:54;;;;;;;;;1.25;1.25;;;;;17.15;72.05;100786.84;4858815;29;45703;-78
2022/10/22 04:11:20;;;;;;;;;2.50;2.00;;;;;17.13;72.44;100781.53;4847646;29;45436;-77
2022/10/22 04:13:45;;;;;;;;;2.50;1.00;;;;;17.19;72.28;100805.44;4841864;29;47682;-76
2022/10/22 04:16:19;;;;;;;;;1.50;1.00;;;;;17.19;72.64;100805.44;4844510;29;45177;-77
2022/10/22 04:18:46;;;;;;;;;1.00;1.00;;;;;17.17;72.14;100804.69;4830208;29;45371;-77
2022/10/22 04:21:14;;;;;;;;;1.00;1.00;;;;;17.18;72.50;100802.84;4835491;29;45237;-77
2022/10/22 04:23:48;;;;;;;;;1.25;1.25;;;;;17.03;72.22;100786.59;4842010;29;46066;-77
2022/10/22 04:26:14;;;;;;;;;1.00;1.00;;;;;17.13;72.37;100799.53;4848085;29;45476;-77
2022/10/22 04:28:40;;;;;;;;;4.25;0.00;;;;;17.15;72.29;100805.72;4845419;29;45293;-77
2022/10/22 04:31:17;;;;;;;;;1.25;1.00;;;;;17.16;72.52;100810.16;4847954;29;46302;-77
2022/10/22 04:33:43;;;;;;;;;2.00;2.00;;;;;17.15;72.31;100808.41;4841842;29;45466;-77
2022/10/22 04:36:11;;;;;;;;;3.00;2.00;;;;;17.09;72.13;100803.38;4848659;29;45374;-77
2022/10/22 04:38:40;;;;;;;;;1.00;1.00;;;;;17.13;72.53;100810.34;4844294;29;45236;-77
2022/10/22 04:41:15;;;;;;;;;1.00;1.00;;;;;17.14;72.34;100826.44;4841273;29;45380;-77
2022/10/22 04:43:41;;;;;;;;;1.25;1.00;;;;;17.03;72.46;100807.31;4848292;29;45350;-77
2022/10/22 04:46:10;;;;;;;;;1.50;1.50;;;;;17.14;72.40;100826.44;4846742;29;46133;-77
2022/10/22 04:48:40;;;;;;;;;1.25;1.25;;;;;17.14;72.54;100829.13;4829614;29;45225;-77
2022/10/22 04:51:06;;;;;;;;;4.00;3.00;;;;;17.14;72.60;100833.63;4830234;29;45334;-77
2022/10/22 04:53:34;;;;;;;;;2.50;1.25;;;;;17.12;72.48;100833.72;4828703;29;45427;-77
2022/10/22 04:56:11;;;;;;;;;3.25;2.00;;;;;17.17;72.81;100833.47;4830460;29;45256;-77
2022/10/22 04:58:37;;;;;;;;;3.00;2.00;;;;;17.15;72.41;100828.16;4839870;29;45272;-77
2022/10/22 05:01:17;;;;;;;;;3.50;1.25;;;;;17.12;72.93;100819.38;4829999;29;45458;-77
2022/10/22 05:03:44;;;;;;;;;1.75;1.75;;;;;17.19;72.67;100826.13;4829654;29;45460;-77
2022/10/22 05:06:10;;;;;;;;;2.00;1.00;;;;;17.17;72.65;100830.75;4828909;29;46082;-77
2022/10/22 05:08:36;;;;;;;;;1.25;1.25;;;;;17.09;72.49;100814.16;4834146;29;45333;-77
2022/10/22 05:11:10;;;;;;;;;2.25;2.00;;;;;17.19;72.47;100843.22;4829627;29;45301;-77
2022/10/22 05:13:35;;;;;;;;;2.75;2.00;;;;;17.17;72.43;100839.75;4833858;29;45429;-77
2022/10/22 05:16:01;;;;;;;;;1.50;1.25;;;;;17.06;72.56;100817.91;4829100;29;46821;-77
2022/10/22 05:18:26;;;;;;;;;3.00;2.00;;;;;17.15;72.43;100836.25;4828162;29;45200;-77
2022/10/22 05:20:51;;;;;;;;;3.00;2.00;;;;;17.14;72.68;100839.03;4836310;29;45328;-77
2022/10/22 05:23:17;;;;;;;;;3.75;2.00;;;;;17.18;72.46;100854.09;4834852;29;45392;-77
2022/10/22 05:25:42;;;;;;;;;4.00;2.00;;;;;17.12;72.93;100849.03;4827861;29;50105;-77
2022/10/22 05:28:07;;;;;;;;;4.75;2.00;;;;;17.13;72.35;100850.78;4828723;29;45279;-77
2022/10/22 05:30:32;;;;;;;;;2.25;2.25;;;;;17.17;72.85;100855.03;4836253;29;45438;-77
2022/10/22 05:32:58;;;;;;;;;2.50;2.25;;;;;17.15;72.97;100859.66;4847515;29;46058;-77
2022/10/22 05:35:23;;;;;;;;;2.00;2.00;;;;;17.12;72.59;100859.81;4828140;29;45251;-77
2022/10/22 05:37:48;;;;;;;;;4.00;3.00;;;;;17.14;73.00;100863.28;4827667;29;45298;-77
2022/10/22 05:40:14;;;;;;;;;3.25;2.00;;;;;17.05;72.75;100848.53;4829096;29;45400;-77
2022/10/22 05:42:39;;;;;;;;;1.25;1.25;;;;;17.07;72.85;100857.38;4839547;29;45282;-77
2022/10/22 05:45:05;;;;;;;;;3.75;2.75;;;;;16.97;72.62;100849.00;4828191;29;46653;-77
2022/10/22 05:47:30;;;;;;;;;4.00;2.00;;;;;16.99;72.77;100854.25;4840391;29;45268;-77
2022/10/22 05:49:56;;;;;;;;;2.00;1.00;;;;;17.02;72.64;100859.47;4829328;29;45326;-77
2022/10/22 05:52:22;;;;;;;;;1.00;1.00;;;;;17.06;72.71;100868.25;4829157;29;46012;-77
2022/10/22 05:54:48;;;;;;;;;3.00;1.00;;;;;17.02;73.10;100863.06;4840577;29;45745;-77
2022/10/22 05:57:13;;;;;;;;;3.00;2.00;;;;;17.06;72.60;100869.16;4838641;29;45395;-77
2022/10/22 05:59:38;;;;;;;;;4.25;2.00;;;;;17.02;73.08;100863.06;4829028;29;45308;-77
2022/10/22 06:02:04;;;;;;;;;2.00;2.00;;;;;16.97;72.85;100857.06;4829046;29;46080;-77
2022/10/22 06:04:29;;;;;;;;;1.50;1.50;;;;;17.00;72.69;100866.81;4835092;29;45216;-77
2022/10/22 06:06:54;;;;;;;;;2.25;2.00;;;;;17.01;72.81;100868.56;4826941;29;45401;-77
2022/10/22 06:09:28;;;;;;;;;2.00;2.00;;;;;16.98;72.96;100871.41;4827908;29;45270;-77
2022/10/22 06:11:55;;;;;;;;;2.50;2.50;;;;;16.97;72.70;100875.06;4847548;29;45533;-77
2022/10/22 06:14:21;;;;;;;;;5.00;1.25;;;;;16.91;72.94;100865.50;4840338;29;45324;-77
2022/10/22 06:16:47;;;;;;;;;2.00;1.50;;;;;16.93;73.02;100871.69;4834859;29;45567;-77
2022/10/22 06:19:15;;;;;;;;;1.50;1.50;;;;;16.98;73.07;100885.75;4847255;29;45335;-77
2022/10/22 06:21:41;;;;;;;;;4.50;2.00;;;;;16.94;72.84;100883.31;4847249;29;45278;-77
2022/10/22 06:24:08;;;;;;;;;2.75;2.00;;;;;16.94;72.78;100888.72;4831078;29;45348;-77
2022/10/22 06:26:33;;;;;;;;;3.50;2.75;;;;;16.95;72.95;100895.84;4851053;29;45455;-77
2022/10/22 06:28:59;;;;;;;;;3.00;3.00;;;;;16.94;73.28;100899.50;4838392;29;45291;-77
2022/10/22 06:31:25;;;;;;;;;2.00;2.00;;;;;16.94;73.14;100895.00;4861736;29;48079;-77
2022/10/22 06:33:51;;;;;;;;;4.25;3.00;;;;;16.90;73.03;100895.25;4843220;29;45478;-77
2022/10/22 06:36:21;;;;;;;;;3.25;2.50;;;;;16.93;72.91;100901.34;4831949;29;45365;-77
2022/10/22 06:38:46;;;;;;;;;3.00;2.00;;;;;16.93;73.33;100909.41;4827131;29;45410;-77
2022/10/22 06:41:15;;;;;;;;;2.50;2.50;;;;;16.91;73.32;100908.66;4830275;29;45776;-77
2022/10/22 06:43:46;;;;;;;;;2.50;2.50;;;;;16.92;72.93;100907.66;4832963;29;45629;-77
2022/10/22 06:46:13;;;;;;;;;3.00;3.00;;;;;16.93;72.96;100912.13;4831575;29;45320;-77
2022/10/22 06:48:39;;;;;;;;;2.00;2.00;;;;;16.91;73.26;100905.09;4827077;29;45314;-77
2022/10/22 06:51:10;;;;;;;;;4.00;3.00;;;;;16.93;73.00;100924.75;4834212;29;46518;-76
2022/10/22 06:53:37;;;;;;;;;2.50;2.25;;;;;16.91;73.44;100934.75;4845482;29;45431;-76
2022/10/22 06:56:07;;;;;;;;;3.00;2.50;;;;;16.84;73.16;100928.78;4832100;29;45355;-77
2022/10/22 06:58:32;;;;;;;;;2.00;2.00;;;;;16.79;73.22;100920.97;4843787;29;45765;-77
2022/10/22 07:01:07;;;;;;;;;1.75;1.75;;;;;16.76;73.44;100925.66;4828214;29;46581;-78
2022/10/22 07:03:32;;;;;;;;;3.00;3.00;;;;;16.79;73.30;100934.44;4827231;29;45436;-78
2022/10/22 07:06:03;;;;;;;;;3.25;3.00;;;;;16.85;73.18;100946.72;4829334;29;45265;-77
2022/10/22 07:08:28;;;;;;;;;3.00;1.75;;;;;16.83;73.37;100951.31;4825894;29;45460;-77
2022/10/22 07:10:55;;;;;;;;;1.00;1.00;;;;;16.82;73.21;100953.16;4825340;29;45188;-76
2022/10/22 07:13:20;;;;;;;;;3.00;2.00;;;;;16.85;73.47;100955.69;4835085;29;45466;-76
2022/10/22 07:15:52;;;;;;;;;3.50;3.00;;;;;16.85;73.13;100963.75;4819738;29;45287;-76
2022/10/22 07:18:18;;;;;;;;;2.00;2.00;;;;;16.83;73.43;100962.09;4832323;29;45739;-76
2022/10/22 07:20:43;;;;;;;;;2.25;1.00;;;;;16.87;73.18;100973.59;4823247;29;46287;-77
2022/10/22 07:23:08;;;;;;;;;4.00;3.00;;;;;16.78;73.50;100959.63;4827155;29;50613;-76
2022/10/22 07:25:33;;;;;;;;;3.50;2.75;;;;;16.84;73.27;100969.25;4837901;29;45250;-76
2022/10/22 07:27:59;;;;;;;;;2.75;2.75;;;;;16.87;73.62;100979.84;4830650;29;45330;-76
2022/10/22 07:30:24;;;;;;;;;2.00;2.00;;;;;16.87;73.61;100976.31;4827797;29;54254;-76
2022/10/22 07:32:49;;;;;;;;;6.75;4.00;;;;;16.85;73.79;100974.53;4826125;29;45408;-76
2022/10/22 07:35:15;;;;;;;;;3.00;3.00;;;;;16.85;73.44;100979.06;4828086;29;45327;-76
2022/10/22 07:37:40;;;;;;;;;3.00;2.00;;;;;16.85;73.39;100982.63;4827636;29;45285;-76
2022/10/22 07:40:06;;;;;;;;;2.00;2.00;;;;;16.89;73.52;100980.66;4826913;29;46009;-76
2022/10/22 07:42:31;;;;;;;;;4.00;2.50;;;;;16.87;73.75;100976.31;4828581;29;45439;-76
2022/10/22 07:44:57;;;;;;;;;2.00;2.00;;;;;16.88;73.95;100992.41;4830968;29;45259;-76
2022/10/22 07:47:22;;;;;;;;;1.75;1.50;;;;;16.87;73.43;100984.38;4831065;29;45258;-76
2022/10/22 07:49:47;;;;;;;;;2.25;2.25;;;;;16.89;73.61;100990.56;4827976;29;45607;-76
2022/10/22 07:52:13;;;;;;;;;3.00;3.00;;;;;16.88;73.46;100989.69;4821923;29;45860;-76
2022/10/22 07:54:38;;;;;;;;;3.75;2.25;;;;;16.88;73.38;100986.13;4837836;29;45683;-75
2022/10/22 07:57:03;;;;;;;;;3.50;2.25;;;;;16.87;73.72;100985.25;4825764;29;45608;-76
2022/10/22 07:59:28;;;;;;;;;5.75;3.00;;;;;16.93;73.82;100994.84;4830546;29;46406;-76
2022/10/22 08:01:54;;;;;;;;;2.00;2.00;;;;;16.89;73.76;100999.53;4828556;29;48528;-76
2022/10/22 08:04:19;;;;;;;;;4.25;2.00;;;;;16.92;73.78;100993.09;4829039;29;45358;-76
2022/10/22 08:06:44;;;;;;;;;3.00;3.00;;;;;16.96;73.83;101000.06;4821660;29;45727;-76
2022/10/22 08:09:10;;;;;;;;;3.50;3.50;;;;;17.00;73.57;101004.31;4840349;29;55694;-76
2022/10/22 08:11:35;;;;;;;;;2.00;2.00;;;;;17.02;73.28;101015.91;4836630;29;45423;-76
2022/10/22 08:14:00;;;;;;;;;5.00;3.00;;;;;17.04;73.62;101019.41;4833997;29;45531;-75
2022/10/22 08:16:26;;;;;;;;;4.25;2.00;;;;;17.04;73.10;101017.56;4827175;29;45419;-76
2022/10/22 08:18:51;;;;;;;;;3.00;3.00;;;;;17.00;73.07;101002.50;4827978;29;47602;-76
2022/10/22 08:21:16;;;;;;;;;4.00;2.00;;;;;17.00;73.34;101001.63;4827928;29;45429;-76
2022/10/22 08:23:42;;;;;;;;;3.50;2.75;;;;;17.04;73.18;101008.63;4833521;29;45405;-76
2022/10/22 08:26:09;;;;;;;;;3.25;3.00;;;;;17.02;73.47;101005.09;4830352;29;45361;-76
2022/10/22 08:28:35;;;;;;;;;4.00;3.00;;;;;17.06;73.55;101014.78;4842638;29;47192;-76
2022/10/22 08:31:02;;;;;;;;;8.25;3.00;;;;;17.07;73.13;101008.41;4862445;29;45277;-76
2022/10/22 08:33:28;;;;;;;;;4.00;3.00;;;;;17.04;73.26;101014.88;4837652;29;45647;-76
2022/10/22 08:35:53;;;;;;;;;4.00;3.00;;;;;17.09;73.28;101013.72;4831486;29;45680;-76
2022/10/22 08:38:19;;;;;;;;;4.00;3.00;;;;;17.11;73.44;101010.00;4858170;29;48227;-76
2022/10/22 08:40:50;;;;;;;;;4.00;4.00;;;;;17.12;73.48;101000.94;4834929;29;45815;-76
2022/10/22 08:43:46;;;;;;;;;6.00;4.25;;;;;17.13;73.55;101008.09;4826982;29;45531;-76
2022/10/22 08:46:32;;;;;;;;;2.75;2.75;;;;;17.10;73.30;100996.59;4834089;29;45411;-76
2022/10/22 08:49:01;;;;;;;;;5.75;4.00;;;;;17.19;73.20;101004.16;4825625;29;45407;-76
2022/10/22 08:51:33;;;;;;;;;4.50;3.00;;;;;17.21;73.33;101013.94;4834516;29;45721;-76
2022/10/22 08:54:16;;;;;;;;;3.00;2.00;;;;;17.20;73.17;101005.91;4830546;29;45573;-76
2022/10/22 08:56:44;;;;;;;;;3.50;3.25;;;;;17.25;73.06;101014.63;4833092;29;45341;-76
2022/10/22 08:59:48;;;;;;;;;2.50;2.50;;;;;17.30;73.14;101022.47;4830390;29;48196;-77
2022/10/22 09:02:21;;;;;;;;;3.50;3.00;;;;;17.26;73.08;101010.09;4832095;29;45294;-76
2022/10/22 09:04:59;;;;;;;;;6.00;1.75;;;;;17.34;73.53;101016.81;4832886;29;45372;-76
2022/10/22 09:07:24;;;;;;;;;2.75;2.75;;;;;17.36;73.40;101016.72;4827769;29;45513;-76
2022/10/22 09:09:53;;;;;;;;;3.75;3.75;;;;;17.35;73.90;101023.94;4829346;29;45329;-77
2022/10/22 09:12:23;;;;;;;;;4.25;2.25;;;;;17.41;73.40;101023.59;4831140;29;45669;-76
2022/10/22 09:14:49;;;;;;;;;4.75;3.50;;;;;17.43;73.47;101019.97;4856292;29;45214;-76
2022/10/22 09:17:39;;;;;;;;;3.75;3.00;;;;;17.47;73.74;101021.50;4828787;29;45378;-76
2022/10/22 09:20:12;;;;;;;;;5.25;4.50;;;;;17.53;73.43;101021.16;4829677;29;46047;-76
2022/10/22 09:23:02;;;;;;;;;5.50;3.00;;;;;17.56;73.50;101012.91;4829591;29;45428;-76
2022/10/22 09:25:35;;;;;;;;;3.00;3.00;;;;;17.57;73.64;101009.22;4841805;29;45255;-76
2022/10/22 09:28:01;;;;;;;;;4.00;3.00;;;;;17.63;74.04;101008.03;4826161;29;45282;-76
2022/10/22 09:30:33;;;;;;;;;2.50;2.50;;;;;17.67;73.68;101012.28;4829522;29;45393;-76
2022/10/22 09:33:12;;;;;;;;;2.50;2.50;;;;;17.68;73.52;101012.19;4826310;29;45568;-76
2022/10/22 09:35:54;;;;;;;;;3.00;3.00;;;;;17.77;73.40;101000.88;4825829;29;45438;-76
2022/10/22 09:38:26;;;;;;;;;5.25;3.50;;;;;17.85;73.06;101022.00;4833333;29;45385;-76
2022/10/22 09:40:54;;;;;;;;;4.25;2.75;;;;;17.89;73.22;101020.00;4839580;29;46270;-76
2022/10/22 09:43:20;;;;;;;;;3.00;2.75;;;;;17.93;73.20;101018.88;4835233;29;45547;-76
2022/10/22 09:45:46;;;;;;;;;2.50;2.25;;;;;17.98;73.23;101008.69;4825308;29;45608;-77
2022/10/22 09:48:25;;;;;;;;;1.75;1.75;;;;;18.00;73.73;101001.34;4824272;29;46051;-76
2022/10/22 09:50:58;;;;;;;;;1.00;0.00;;;;;18.08;73.46;101009.88;4826542;29;46657;-76
2022/10/22 09:53:29;;;;;;;;;3.00;2.50;;;;;18.08;72.95;101004.47;4826475;29;45360;-76
2022/10/22 09:55:59;;;;;;;;;1.75;1.75;;;;;18.15;73.40;101002.28;4825234;29;45441;-76
2022/10/22 09:58:25;;;;;;;;;2.50;2.50;;;;;18.21;73.37;101010.00;4821463;29;45630;-77
2022/10/22 10:01:00;;;;;;;;;3.50;2.75;;;;;18.23;73.38;101008.09;4823589;29;46178;-76
2022/10/22 10:03:28;;;;;;;;;3.50;1.75;;;;;18.27;73.07;101006.91;4827639;29;45393;-76
2022/10/22 10:05:57;;;;;;;;;2.00;2.00;;;;;18.21;72.93;100987.50;4832548;29;45519;-75
2022/10/22 10:08:22;;;;;;;;;2.00;1.50;;;;;18.37;72.99;101007.25;4834737;29;45737;-76
2022/10/22 10:10:55;;;;;;;;;2.00;1.75;;;;;18.43;72.94;101008.72;4825631;29;45357;-77
2022/10/22 10:13:30;;;;;;;;;1.00;1.00;;;;;18.42;72.83;101004.25;4840989;29;46618;-75
2022/10/22 10:16:02;;;;;;;;;2.00;2.00;;;;;18.45;72.70;101001.38;4828325;29;45336;-77
2022/10/22 10:18:49;;;;;;;;;2.75;1.50;;;;;18.49;73.18;101006.50;4827845;29;45333;-77
2022/10/22 10:21:33;;;;;;;;;1.50;1.00;;;;;18.59;72.81;101008.63;4821836;29;46103;-76
2022/10/22 10:24:21;;;;;;;;;1.75;1.75;;;;;18.65;72.20;101017.22;4826183;29;45400;-76
2022/10/22 10:27:13;;;;;;;;;1.50;1.50;;;;;18.71;72.42;101021.41;4828740;29;45312;-76
2022/10/22 10:30:04;;;;;;;;;4.50;2.75;;;;;18.75;72.28;101019.38;4827782;29;45582;-76
2022/10/22 10:32:53;;;;;;;;;3.25;1.75;;;;;18.79;72.52;101019.06;4822618;29;46173;-76
2022/10/22 10:35:47;;;;;;;;;3.00;1.75;;;;;18.82;72.24;101023.44;4817402;29;45482;-77
2022/10/22 10:38:31;;;;;;;;;1.75;1.75;;;;;18.87;72.23;101022.19;4826578;29;45639;-77
2022/10/22 10:41:30;;;;;;;;;3.00;2.50;;;;;18.91;72.12;101024.72;4818296;29;45543;-77
2022/10/22 10:44:01;;;;;;;;;3.25;1.75;;;;;18.95;71.94;101023.56;4819227;29;45296;-76
2022/10/22 10:46:41;;;;;;;;;3.75;2.00;;;;;18.97;71.76;101022.47;4826808;29;45495;-76
2022/10/22 10:49:22;;;;;;;;;0.00;0.00;;;;;18.96;72.26;101011.75;4825356;29;45228;-77
2022/10/22 10:52:12;;;;;;;;;3.00;2.00;;;;;19.08;71.50;101019.13;4822220;29;45482;-77
2022/10/22 10:54:49;;;;;;;;;2.75;1.75;;;;;19.10;71.06;101029.84;4826107;29;46333;-77
2022/10/22 10:57:33;;;;;;;;;3.50;1.75;;;;;19.04;71.81;101013.03;4834446;29;45288;-77
2022/10/22 11:00:16;;;;;;;;;1.25;1.25;;;;;19.17;71.94;101028.47;4838753;29;45284;-77
2022/10/22 11:03:03;;;;;;;;;3.00;3.00;;;;;19.20;71.50;101022.88;4828319;29;45286;-77
2022/10/22 11:05:42;;;;;;;;;2.00;2.00;;;;;19.24;71.93;101021.69;4828296;29;45388;-77
2022/10/22 11:08:44;;;;;;;;;1.25;1.00;;;;;19.32;71.75;101026.63;4827756;29;45430;-77
2022/10/22 11:11:18;;;;;;;;;6.00;1.25;;;;;19.38;71.11;101027.09;4815842;29;45513;-77
2022/10/22 11:13:51;;;;;;;;;2.25;2.25;;;;;19.32;71.29;101011.25;4840668;29;45239;-77
2022/10/22 11:16:26;;;;;;;;;2.00;1.00;;;;;19.41;71.23;101024.19;4839570;29;45483;-77
2022/10/22 11:19:03;;;;;;;;;1.75;1.50;;;;;19.48;71.13;101027.38;4831245;29;45495;-77
2022/10/22 11:21:38;;;;;;;;;2.75;1.25;;;;;19.50;70.80;101024.56;4831408;29;45402;-77
2022/10/22 11:24:06;;;;;;;;;4.25;2.25;;;;;19.54;70.76;101034.22;4831154;29;45352;-77
2022/10/22 11:26:42;;;;;;;;;3.75;1.25;;;;;19.54;70.77;101021.53;4830676;29;45340;-77
2022/10/22 11:29:14;;;;;;;;;0.75;0.75;;;;;19.58;70.52;101019.53;4830493;29;45465;-77
2022/10/22 11:31:40;;;;;;;;;4.75;2.50;;;;;19.52;70.20;100998.25;4830813;29;45583;-77
2022/10/22 11:34:11;;;;;;;;;4.00;4.00;;;;;19.62;70.73;101004.78;4830286;29;45260;-77
2022/10/22 11:36:37;;;;;;;;;2.25;1.00;;;;;19.68;70.44;101007.09;4830271;29;46888;-77
2022/10/22 11:39:03;;;;;;;;;2.00;2.00;;;;;19.70;70.54;101002.44;4830829;29;45241;-77